createdAt,value
2022-11-20T00:00:10.444Z,98.17
2022-11-20T00:00:30.471Z,98.21
2022-11-20T00:00:50.490Z,98.24
2022-11-20T00:01:10.514Z,98.3
2022-11-20T00:01:30.544Z,98.3
2022-11-20T00:01:50.652Z,98.28
2022-11-20T00:02:10.644Z,98.32
2022-11-20T00:02:30.613Z,98.36
2022-11-20T00:02:50.657Z,98.42
2022-11-20T00:03:10.713Z,98.43
2022-11-20T00:03:30.773Z,98.54
2022-11-20T00:03:50.821Z,98.55
2022-11-20T00:04:10.856Z,98.56
2022-11-20T00:04:30.985Z,98.59
2022-11-20T00:04:50.945Z,98.6
2022-11-20T00:05:10.978Z,98.66
2022-11-20T00:05:31.005Z,98.7
2022-11-20T00:05:51.049Z,98.73
2022-11-20T00:06:11.067Z,98.76
2022-11-20T00:06:31.102Z,98.83
2022-11-20T00:06:51.140Z,98.83
2022-11-20T00:07:11.260Z,98.87
2022-11-20T00:07:31.257Z,98.91
2022-11-20T00:07:51.239Z,98.96
2022-11-20T00:08:11.231Z,99.01
2022-11-20T00:08:31.274Z,99.03
2022-11-20T00:08:51.275Z,99.11
2022-11-20T00:09:11.308Z,99.11
2022-11-20T00:09:31.336Z,99.1
2022-11-20T00:09:51.356Z,99.08
2022-11-20T00:10:11.388Z,99.1
2022-11-20T00:10:31.417Z,99.12
2022-11-20T00:10:51.457Z,99.09
2022-11-20T00:11:15.512Z,99.1
2022-11-20T00:11:31.528Z,99.12
2022-11-20T00:11:51.569Z,99.05
2022-11-20T00:12:11.615Z,99.08
2022-11-20T00:12:31.649Z,99.04
2022-11-20T00:12:51.679Z,99.04
2022-11-20T00:13:11.767Z,99.06
2022-11-20T00:13:31.746Z,99.09
2022-11-20T00:13:51.772Z,99.03
2022-11-20T00:14:11.776Z,99.01
2022-11-20T00:14:31.808Z,99.03
2022-11-20T00:14:51.844Z,98.99
2022-11-20T00:15:11.864Z,99.01
2022-11-20T00:15:31.894Z,98.96
2022-11-20T00:15:51.916Z,99
2022-11-20T00:16:11.944Z,99
2022-11-20T00:16:31.987Z,99
2022-11-20T00:16:52.011Z,99.03
2022-11-20T00:17:12.051Z,99.08
2022-11-20T00:17:32.125Z,99.06
2022-11-20T00:17:52.142Z,99.05
2022-11-20T00:18:12.210Z,98.97
2022-11-20T00:18:32.230Z,98.99
2022-11-20T00:18:52.279Z,98.93
2022-11-20T00:19:12.323Z,98.92
2022-11-20T00:19:32.400Z,98.86
2022-11-20T00:19:52.427Z,98.85
2022-11-20T00:20:12.456Z,98.86
2022-11-20T00:20:32.478Z,98.83
2022-11-20T00:20:52.512Z,98.81
2022-11-20T00:21:12.543Z,98.81
2022-11-20T00:21:32.582Z,98.79
2022-11-20T00:21:52.630Z,98.79
2022-11-20T00:22:12.690Z,98.77
2022-11-20T00:22:32.729Z,98.73
2022-11-20T00:22:52.778Z,98.68
2022-11-20T00:23:12.807Z,98.7
2022-11-20T00:23:32.838Z,98.67
2022-11-20T00:23:54.917Z,98.68
2022-11-20T00:24:12.912Z,98.64
2022-11-20T00:24:32.926Z,98.65
2022-11-20T00:24:52.950Z,98.6
2022-11-20T00:25:13.047Z,98.59
2022-11-20T00:25:33.066Z,98.58
2022-11-20T00:25:53.091Z,98.58
2022-11-20T00:26:13.112Z,98.56
2022-11-20T00:26:33.144Z,98.54
2022-11-20T00:26:53.160Z,98.48
2022-11-20T00:27:13.224Z,98.49
2022-11-20T00:27:33.263Z,98.44
2022-11-20T00:27:53.282Z,98.42
2022-11-20T00:28:13.328Z,98.37
2022-11-20T00:28:33.357Z,98.34
2022-11-20T00:28:53.375Z,98.32
2022-11-20T00:29:13.410Z,98.3
2022-11-20T00:29:33.525Z,98.32
2022-11-20T00:29:53.514Z,98.3
2022-11-20T00:30:15.017Z,98.28
2022-11-20T00:30:33.547Z,98.2
2022-11-20T00:30:53.593Z,98.2
2022-11-20T00:31:13.653Z,98.26
2022-11-20T00:31:33.690Z,98.24
2022-11-20T00:31:53.725Z,98.2
2022-11-20T00:32:13.731Z,98.15
2022-11-20T00:32:33.760Z,98.11
2022-11-20T00:32:53.815Z,98.05
2022-11-20T00:33:13.839Z,98.05
2022-11-20T00:33:33.919Z,97.96
2022-11-20T00:33:53.927Z,97.93
2022-11-20T00:34:13.957Z,97.87
2022-11-20T00:34:34.079Z,97.84
2022-11-20T00:34:54.052Z,97.81
2022-11-20T00:35:14.073Z,97.8
2022-11-20T00:35:34.114Z,97.76
2022-11-20T00:35:54.149Z,97.71
2022-11-20T00:36:14.184Z,97.66
2022-11-20T00:36:34.218Z,97.68
2022-11-20T00:36:54.222Z,97.7
2022-11-20T00:37:14.258Z,97.72
2022-11-20T00:37:34.299Z,97.67
2022-11-20T00:37:54.319Z,97.65
2022-11-20T00:38:14.352Z,97.66
2022-11-20T00:38:34.379Z,97.6
2022-11-20T00:38:54.473Z,97.63
2022-11-20T00:39:14.442Z,97.64
2022-11-20T00:39:34.473Z,97.68
2022-11-20T00:39:54.494Z,97.62
2022-11-20T00:40:14.512Z,97.58
2022-11-20T00:40:34.561Z,97.51
2022-11-20T00:40:54.824Z,97.43
2022-11-20T00:41:14.613Z,97.38
2022-11-20T00:41:34.657Z,97.33
2022-11-20T00:41:54.688Z,97.29
2022-11-20T00:42:14.705Z,97.28
2022-11-20T00:42:34.756Z,97.28
2022-11-20T00:42:54.782Z,97.29
2022-11-20T00:43:14.809Z,97.33
2022-11-20T00:43:34.861Z,97.4
2022-11-20T00:43:54.988Z,97.49
2022-11-20T00:44:14.947Z,97.56
2022-11-20T00:44:34.996Z,97.68
2022-11-20T00:44:55.082Z,97.69
2022-11-20T00:45:15.043Z,97.76
2022-11-20T00:45:35.101Z,97.73
2022-11-20T00:45:55.139Z,97.72
2022-11-20T00:46:15.168Z,97.67
2022-11-20T00:46:35.184Z,97.66
2022-11-20T00:46:55.214Z,97.71
2022-11-20T00:47:15.241Z,97.71
2022-11-20T00:47:35.284Z,97.7
2022-11-20T00:47:55.485Z,97.66
2022-11-20T00:48:15.333Z,97.64
2022-11-20T00:48:35.392Z,97.67
2022-11-20T00:48:55.409Z,97.68
2022-11-20T00:49:15.441Z,97.71
2022-11-20T00:49:35.481Z,97.73
2022-11-20T00:49:55.509Z,97.76
2022-11-20T00:50:15.542Z,97.69
2022-11-20T00:50:35.590Z,97.68
2022-11-20T00:50:55.611Z,97.65
2022-11-20T00:51:15.649Z,97.64
2022-11-20T00:51:35.678Z,97.6
2022-11-20T00:51:55.755Z,97.57
2022-11-20T00:52:15.722Z,97.51
2022-11-20T00:52:35.769Z,97.43
2022-11-20T00:52:55.816Z,97.38
2022-11-20T00:53:15.845Z,97.35
2022-11-20T00:53:35.878Z,97.3
2022-11-20T00:53:55.908Z,97.29
2022-11-20T00:54:15.929Z,97.36
2022-11-20T00:54:35.966Z,97.37
2022-11-20T00:54:56.002Z,97.43
2022-11-20T00:55:16.040Z,97.42
2022-11-20T00:55:36.070Z,97.4
2022-11-20T00:55:56.100Z,97.34
2022-11-20T00:56:16.122Z,97.32
2022-11-20T00:56:36.149Z,97.34
2022-11-20T00:56:56.205Z,97.31
2022-11-20T00:57:16.235Z,97.28
2022-11-20T00:57:36.267Z,97.21
2022-11-20T00:57:56.283Z,97.15
2022-11-20T00:58:16.313Z,97.09
2022-11-20T00:58:36.338Z,97.01
2022-11-20T00:58:56.363Z,97.03
2022-11-20T00:59:16.397Z,97.11
2022-11-20T00:59:36.420Z,97.24
2022-11-20T00:59:56.497Z,97.38
2022-11-20T01:00:16.521Z,97.51
2022-11-20T01:00:36.534Z,97.58
2022-11-20T01:00:56.609Z,97.64
2022-11-20T01:01:16.769Z,97.68
2022-11-20T01:01:36.722Z,97.62
2022-11-20T01:01:56.675Z,97.64
2022-11-20T01:02:16.700Z,97.6
2022-11-20T01:02:36.742Z,97.58
2022-11-20T01:02:56.781Z,97.61
2022-11-20T01:03:16.831Z,97.61
2022-11-20T01:03:36.866Z,97.58
2022-11-20T01:03:56.897Z,97.55
2022-11-20T01:04:16.940Z,97.53
2022-11-20T01:04:37.056Z,97.58
2022-11-20T01:04:57.017Z,97.63
2022-11-20T01:05:17.061Z,97.61
2022-11-20T01:05:37.117Z,97.63
2022-11-20T01:05:57.198Z,97.63
2022-11-20T01:06:17.249Z,97.68
2022-11-20T01:06:37.282Z,97.72
2022-11-20T01:06:57.410Z,97.76
2022-11-20T01:07:17.381Z,97.83
2022-11-20T01:07:37.481Z,97.88
2022-11-20T01:07:57.416Z,97.95
2022-11-20T01:08:17.442Z,98
2022-11-20T01:08:37.460Z,98.02
2022-11-20T01:08:57.486Z,98.09
2022-11-20T01:09:17.504Z,98.11
2022-11-20T01:09:37.537Z,98.11
2022-11-20T01:09:57.562Z,98.09
2022-11-20T01:10:17.595Z,98.11
2022-11-20T01:10:37.617Z,98.11
2022-11-20T01:10:57.653Z,98.1
2022-11-20T01:11:17.682Z,98.04
2022-11-20T01:11:37.719Z,97.98
2022-11-20T01:11:57.761Z,97.98
2022-11-20T01:12:17.814Z,98.01
2022-11-20T01:12:37.861Z,98.03
2022-11-20T01:12:57.916Z,98.06
2022-11-20T01:13:22.842Z,98.05
2022-11-20T01:13:37.963Z,98.04
2022-11-20T01:13:57.999Z,98.06
2022-11-20T01:14:18.017Z,98.06
2022-11-20T01:14:38.048Z,98.02
2022-11-20T01:14:58.166Z,97.99
2022-11-20T01:15:18.110Z,97.94
2022-11-20T01:15:38.140Z,97.9
2022-11-20T01:15:58.191Z,97.89
2022-11-20T01:16:18.213Z,97.91
2022-11-20T01:16:38.238Z,97.9
2022-11-20T01:16:58.270Z,97.97
2022-11-20T01:17:18.299Z,98
2022-11-20T01:17:38.328Z,98.07
2022-11-20T01:17:58.381Z,98.12
2022-11-20T01:18:18.421Z,98.15
2022-11-20T01:18:38.484Z,98.19
2022-11-20T01:18:58.517Z,98.26
2022-11-20T01:19:18.641Z,98.27
2022-11-20T01:19:38.603Z,98.33
2022-11-20T01:19:58.611Z,98.35
2022-11-20T01:20:18.630Z,98.37
2022-11-20T01:20:38.656Z,98.37
2022-11-20T01:20:58.691Z,98.42
2022-11-20T01:21:18.719Z,98.41
2022-11-20T01:21:38.752Z,98.37
2022-11-20T01:21:58.811Z,98.43
2022-11-20T01:22:18.861Z,98.51
2022-11-20T01:22:38.890Z,98.61
2022-11-20T01:22:58.903Z,98.66
2022-11-20T01:23:18.935Z,98.69
2022-11-20T01:23:38.963Z,98.67
2022-11-20T01:23:58.984Z,98.69
2022-11-20T01:24:19.043Z,98.7
2022-11-20T01:24:39.055Z,98.71
2022-11-20T01:24:59.083Z,98.74
2022-11-20T01:25:19.114Z,98.77
2022-11-20T01:25:39.136Z,98.77
2022-11-20T01:25:59.169Z,98.86
2022-11-20T01:26:19.199Z,98.89
2022-11-20T01:26:39.243Z,98.91
2022-11-20T01:26:59.256Z,98.96
2022-11-20T01:27:19.306Z,98.99
2022-11-20T01:27:39.343Z,99.01
2022-11-20T01:27:59.366Z,99.01
2022-11-20T01:28:19.408Z,99.02
2022-11-20T01:28:39.435Z,99.01
2022-11-20T01:28:59.504Z,99.05
2022-11-20T01:29:19.933Z,99.03
2022-11-20T01:29:39.582Z,99.06
2022-11-20T01:30:01.265Z,99.13
2022-11-20T01:30:19.682Z,99.16
2022-11-20T01:30:39.707Z,99.14
2022-11-20T01:30:59.753Z,99.16
2022-11-20T01:31:19.801Z,99.14
2022-11-20T01:31:39.835Z,99.17
2022-11-20T01:31:59.873Z,99.12
2022-11-20T01:32:19.892Z,99.11
2022-11-20T01:32:39.947Z,99.08
2022-11-20T01:32:59.998Z,99.11
2022-11-20T01:33:20.078Z,99.1
2022-11-20T01:33:40.107Z,99.1
2022-11-20T01:34:00.126Z,99.09
2022-11-20T01:34:20.298Z,99.11
2022-11-20T01:34:40.226Z,99.1
2022-11-20T01:35:00.244Z,99.09
2022-11-20T01:35:20.285Z,99.08
2022-11-20T01:35:40.378Z,99.06
2022-11-20T01:36:00.405Z,99.05
2022-11-20T01:36:20.459Z,99.03
2022-11-20T01:36:40.498Z,99.06
2022-11-20T01:37:00.544Z,99.03
2022-11-20T01:37:20.582Z,99.09
2022-11-20T01:37:40.623Z,99.11
2022-11-20T01:38:00.644Z,99.08
2022-11-20T01:38:20.689Z,99.09
2022-11-20T01:38:40.694Z,99.08
2022-11-20T01:39:00.754Z,99.07
2022-11-20T01:39:21.141Z,99.03
2022-11-20T01:39:40.814Z,99.02
2022-11-20T01:40:00.893Z,99.07
2022-11-20T01:40:20.904Z,99.02
2022-11-20T01:40:40.949Z,99.05
2022-11-20T01:41:00.977Z,99.02
2022-11-20T01:41:21.007Z,99.03
2022-11-20T01:41:41.029Z,99
2022-11-20T01:42:03.488Z,98.98
2022-11-20T01:42:21.114Z,98.93
2022-11-20T01:42:41.174Z,98.9
2022-11-20T01:43:01.226Z,98.83
2022-11-20T01:43:21.256Z,98.82
2022-11-20T01:43:41.283Z,98.77
2022-11-20T01:44:01.334Z,98.68
2022-11-20T01:44:21.372Z,98.69
2022-11-20T01:44:41.388Z,98.71
2022-11-20T01:45:01.420Z,98.7
2022-11-20T01:45:21.440Z,98.68
2022-11-20T01:45:41.468Z,98.68
2022-11-20T01:46:01.497Z,98.67
2022-11-20T01:46:21.515Z,98.67
2022-11-20T01:46:41.578Z,98.67
2022-11-20T01:47:01.592Z,98.7
2022-11-20T01:47:21.616Z,98.7
2022-11-20T01:47:41.641Z,98.68
2022-11-20T01:48:01.673Z,98.7
2022-11-20T01:48:21.733Z,98.69
2022-11-20T01:48:41.751Z,98.72
2022-11-20T01:49:01.781Z,98.7
2022-11-20T01:49:22.028Z,98.72
2022-11-20T01:49:41.835Z,98.68
2022-11-20T01:50:01.856Z,98.63
2022-11-20T01:50:21.907Z,98.72
2022-11-20T01:50:41.924Z,98.73
2022-11-20T01:51:01.970Z,98.7
2022-11-20T01:51:21.997Z,98.74
2022-11-20T01:51:42.029Z,98.78
2022-11-20T01:52:02.070Z,98.75
2022-11-20T01:52:22.105Z,98.8
2022-11-20T01:52:42.133Z,98.77
2022-11-20T01:53:02.167Z,98.79
2022-11-20T01:53:22.180Z,98.75
2022-11-20T01:53:42.203Z,98.75
2022-11-20T01:54:02.251Z,98.76
2022-11-20T01:54:22.279Z,98.75
2022-11-20T01:54:42.338Z,98.8
2022-11-20T01:55:02.386Z,98.84
2022-11-20T01:55:22.423Z,98.85
2022-11-20T01:55:42.466Z,98.84
2022-11-20T01:56:02.497Z,98.86
2022-11-20T01:56:22.521Z,98.81
2022-11-20T01:56:42.560Z,98.81
2022-11-20T01:57:02.576Z,98.79
2022-11-20T01:57:22.620Z,98.78
2022-11-20T01:57:42.650Z,98.78
2022-11-20T01:58:02.707Z,98.77
2022-11-20T01:58:22.716Z,98.74
2022-11-20T01:58:42.755Z,98.75
2022-11-20T01:59:02.782Z,98.75
2022-11-20T01:59:23.322Z,98.73
2022-11-20T01:59:42.837Z,98.68
2022-11-20T02:00:02.870Z,98.65
2022-11-20T02:00:22.916Z,98.6
2022-11-20T02:00:42.933Z,98.59
2022-11-20T02:01:03.016Z,98.56
2022-11-20T02:01:23.078Z,98.49
2022-11-20T02:01:43.041Z,98.49
2022-11-20T02:02:03.045Z,98.47
2022-11-20T02:02:23.121Z,98.47
2022-11-20T02:02:43.154Z,98.5
2022-11-20T02:03:03.203Z,98.46
2022-11-20T02:03:23.240Z,98.45
2022-11-20T02:03:43.281Z,98.5
2022-11-20T02:04:03.327Z,98.45
2022-11-20T02:04:23.371Z,98.41
2022-11-20T02:04:43.384Z,98.4
2022-11-20T02:05:03.415Z,98.35
2022-11-20T02:05:23.473Z,98.31
2022-11-20T02:05:43.532Z,98.27
2022-11-20T02:06:03.558Z,98.21
2022-11-20T02:06:23.598Z,98.11
2022-11-20T02:06:43.629Z,98.13
2022-11-20T02:07:03.724Z,98.13
2022-11-20T02:07:23.752Z,98
2022-11-20T02:07:43.715Z,97.92
2022-11-20T02:08:03.760Z,97.89
2022-11-20T02:08:23.791Z,97.8
2022-11-20T02:08:43.826Z,97.79
2022-11-20T02:09:03.853Z,97.74
2022-11-20T02:09:24.121Z,97.73
2022-11-20T02:09:43.902Z,97.72
2022-11-20T02:10:03.926Z,97.7
2022-11-20T02:10:23.961Z,97.61
2022-11-20T02:10:44.000Z,97.59
2022-11-20T02:11:04.026Z,97.56
2022-11-20T02:11:24.052Z,97.56
2022-11-20T02:11:44.085Z,97.57
2022-11-20T02:12:04.144Z,97.56
2022-11-20T02:12:24.176Z,97.56
2022-11-20T02:12:44.208Z,97.62
2022-11-20T02:13:04.229Z,97.65
2022-11-20T02:13:24.256Z,97.73
2022-11-20T02:13:44.291Z,97.78
2022-11-20T02:14:04.314Z,97.8
2022-11-20T02:14:24.343Z,97.83
2022-11-20T02:14:44.375Z,97.89
2022-11-20T02:15:04.422Z,97.92
2022-11-20T02:15:29.010Z,97.94
2022-11-20T02:15:44.495Z,97.92
2022-11-20T02:16:04.550Z,97.87
2022-11-20T02:16:24.592Z,97.83
2022-11-20T02:16:44.653Z,97.76
2022-11-20T02:17:04.677Z,97.79
2022-11-20T02:17:24.709Z,97.72
2022-11-20T02:17:44.739Z,97.68
2022-11-20T02:18:04.771Z,97.62
2022-11-20T02:18:24.811Z,97.56
2022-11-20T02:18:44.831Z,97.5
2022-11-20T02:19:04.898Z,97.45
2022-11-20T02:19:24.929Z,97.45
2022-11-20T02:19:44.989Z,97.34
2022-11-20T02:20:05.023Z,97.34
2022-11-20T02:20:25.067Z,97.28
2022-11-20T02:20:45.111Z,97.28
2022-11-20T02:21:05.145Z,97.3
2022-11-20T02:21:25.207Z,97.3
2022-11-20T02:21:45.241Z,97.35
2022-11-20T02:22:05.311Z,97.41
2022-11-20T02:22:25.349Z,97.44
2022-11-20T02:22:45.385Z,97.49
2022-11-20T02:23:05.429Z,97.49
2022-11-20T02:23:25.462Z,97.51
2022-11-20T02:23:45.487Z,97.53
2022-11-20T02:24:05.520Z,97.53
2022-11-20T02:24:25.540Z,97.59
2022-11-20T02:24:45.595Z,97.6
2022-11-20T02:25:05.632Z,97.6
2022-11-20T02:25:25.659Z,97.62
2022-11-20T02:25:45.695Z,97.63
2022-11-20T02:26:05.731Z,97.61
2022-11-20T02:26:25.766Z,97.59
2022-11-20T02:26:45.812Z,97.61
2022-11-20T02:27:05.845Z,97.62
2022-11-20T02:27:25.884Z,97.64
2022-11-20T02:27:45.911Z,97.6
2022-11-20T02:28:05.928Z,97.7
2022-11-20T02:28:25.950Z,97.71
2022-11-20T02:28:45.981Z,97.73
2022-11-20T02:29:06.033Z,97.72
2022-11-20T02:29:26.086Z,97.73
2022-11-20T02:29:46.108Z,97.77
2022-11-20T02:30:06.145Z,97.81
2022-11-20T02:30:26.180Z,97.8
2022-11-20T02:30:46.211Z,97.81
2022-11-20T02:31:06.243Z,97.87
2022-11-20T02:31:26.266Z,97.88
2022-11-20T02:31:46.295Z,97.89
2022-11-20T02:32:06.336Z,97.89
2022-11-20T02:32:26.353Z,97.98
2022-11-20T02:32:46.383Z,97.97
2022-11-20T02:33:06.427Z,97.94
2022-11-20T02:33:26.464Z,97.93
2022-11-20T02:33:46.494Z,97.89
2022-11-20T02:34:06.539Z,97.85
2022-11-20T02:34:26.561Z,97.85
2022-11-20T02:34:46.580Z,97.88
2022-11-20T02:35:06.614Z,97.92
2022-11-20T02:35:26.624Z,97.94
2022-11-20T02:35:46.682Z,97.93
2022-11-20T02:36:06.731Z,97.97
2022-11-20T02:36:26.760Z,97.98
2022-11-20T02:36:46.796Z,97.97
2022-11-20T02:37:06.839Z,97.99
2022-11-20T02:37:26.859Z,97.96
2022-11-20T02:37:46.893Z,98.01
2022-11-20T02:38:06.916Z,98.03
2022-11-20T02:38:26.934Z,98.04
2022-11-20T02:38:46.980Z,98.05
2022-11-20T02:39:07.040Z,98.05
2022-11-20T02:39:27.080Z,98.14
2022-11-20T02:39:47.101Z,98.14
2022-11-20T02:40:07.130Z,98.11
2022-11-20T02:40:27.189Z,98.11
2022-11-20T02:40:51.414Z,98.11
2022-11-20T02:41:07.242Z,98.08
2022-11-20T02:41:27.274Z,98.08
2022-11-20T02:41:47.319Z,98.05
2022-11-20T02:42:07.345Z,98.11
2022-11-20T02:42:27.370Z,98.08
2022-11-20T02:42:47.418Z,98.11
2022-11-20T02:43:07.435Z,98.09
2022-11-20T02:43:27.467Z,98.1
2022-11-20T02:43:47.503Z,98.1
2022-11-20T02:44:07.530Z,98.19
2022-11-20T02:44:27.573Z,98.21
2022-11-20T02:44:47.590Z,98.26
2022-11-20T02:45:07.638Z,98.28
2022-11-20T02:45:27.670Z,98.32
2022-11-20T02:45:47.753Z,98.3
2022-11-20T02:46:07.820Z,98.28
2022-11-20T02:46:27.851Z,98.27
2022-11-20T02:46:47.894Z,98.27
2022-11-20T02:47:07.926Z,98.26
2022-11-20T02:47:27.942Z,98.24
2022-11-20T02:47:48.002Z,98.24
2022-11-20T02:48:08.035Z,98.22
2022-11-20T02:48:30.222Z,98.19
2022-11-20T02:48:48.118Z,98.11
2022-11-20T02:49:08.155Z,98.11
2022-11-20T02:49:28.220Z,98.12
2022-11-20T02:49:48.253Z,98.11
2022-11-20T02:50:08.290Z,98.11
2022-11-20T02:50:28.310Z,98.11
2022-11-20T02:50:48.355Z,98.08
2022-11-20T02:51:08.419Z,98.08
2022-11-20T02:51:28.446Z,98.05
2022-11-20T02:51:48.472Z,98.04
2022-11-20T02:52:08.499Z,98.02
2022-11-20T02:52:28.525Z,98.02
2022-11-20T02:52:48.578Z,98.03
2022-11-20T02:53:08.638Z,98.08
2022-11-20T02:53:28.659Z,98.08
2022-11-20T02:53:48.713Z,98.06
2022-11-20T02:54:08.738Z,98.07
2022-11-20T02:54:28.773Z,98.1
2022-11-20T02:54:48.785Z,98.06
2022-11-20T02:55:08.847Z,98.12
2022-11-20T02:55:28.892Z,98.12
2022-11-20T02:55:48.960Z,98.16
2022-11-20T02:56:08.994Z,98.2
2022-11-20T02:56:29.019Z,98.25
2022-11-20T02:56:49.064Z,98.23
2022-11-20T02:57:09.131Z,98.26
2022-11-20T02:57:29.154Z,98.25
2022-11-20T02:57:49.186Z,98.18
2022-11-20T02:58:09.221Z,98.21
2022-11-20T02:58:29.258Z,98.21
2022-11-20T02:58:49.310Z,98.17
2022-11-20T02:59:09.343Z,98.21
2022-11-20T02:59:29.365Z,98.2
2022-11-20T02:59:49.412Z,98.2
2022-11-20T03:00:09.456Z,98.15
2022-11-20T03:00:29.513Z,98.22
2022-11-20T03:00:49.531Z,98.16
2022-11-20T03:01:09.618Z,98.17
2022-11-20T03:01:29.765Z,98.14
2022-11-20T03:01:49.653Z,98.12
2022-11-20T03:02:09.682Z,98.09
2022-11-20T03:02:29.711Z,98.1
2022-11-20T03:02:49.745Z,98.09
2022-11-20T03:03:09.773Z,98.1
2022-11-20T03:03:29.826Z,98.09
2022-11-20T03:03:49.869Z,98.08
2022-11-20T03:04:09.906Z,98.04
2022-11-20T03:04:29.933Z,98.05
2022-11-20T03:04:49.953Z,98.07
2022-11-20T03:05:09.980Z,98.06
2022-11-20T03:05:29.999Z,98.09
2022-11-20T03:05:51.036Z,98.13
2022-11-20T03:07:05.276Z,98.17
2022-11-20T03:07:10.245Z,98.19
2022-11-20T03:07:30.294Z,98.19
2022-11-20T03:07:50.305Z,98.19
2022-11-20T03:08:10.303Z,98.16
2022-11-20T03:08:30.351Z,98.22
2022-11-20T03:08:50.397Z,98.22
2022-11-20T03:09:10.444Z,98.22
2022-11-20T03:09:30.469Z,98.23
2022-11-20T03:09:50.507Z,98.24
2022-11-20T03:10:10.539Z,98.28
2022-11-20T03:10:30.579Z,98.29
2022-11-20T03:11:50.725Z,98.27
2022-11-20T03:12:10.752Z,98.29
2022-11-20T03:12:30.751Z,98.3
2022-11-20T03:12:50.790Z,98.27
2022-11-20T03:13:10.803Z,98.31
2022-11-20T03:13:30.844Z,98.32
2022-11-20T03:13:50.867Z,98.38
2022-11-20T03:14:10.891Z,98.42
2022-11-20T03:14:30.946Z,98.43
2022-11-20T03:14:53.270Z,98.43
2022-11-20T03:15:11.039Z,98.45
2022-11-20T03:15:31.066Z,98.44
2022-11-20T03:15:51.096Z,98.41
2022-11-20T03:16:11.131Z,98.43
2022-11-20T03:16:31.166Z,98.38
2022-11-20T03:16:51.180Z,98.39
2022-11-20T03:17:11.210Z,98.39
2022-11-20T03:17:31.252Z,98.33
2022-11-20T03:17:51.291Z,98.31
2022-11-20T03:18:11.315Z,98.28
2022-11-20T03:18:31.363Z,98.28
2022-11-20T03:18:51.399Z,98.23
2022-11-20T03:19:11.431Z,98.21
2022-11-20T03:19:31.460Z,98.12
2022-11-20T03:19:51.491Z,98.11
2022-11-20T03:20:11.524Z,98.07
2022-11-20T03:20:31.586Z,98.04
2022-11-20T03:20:51.596Z,98.04
2022-11-20T03:21:11.649Z,98
2022-11-20T03:21:31.672Z,97.99
2022-11-20T03:21:51.717Z,98
2022-11-20T03:22:11.790Z,97.99
2022-11-20T03:22:31.827Z,98
2022-11-20T03:22:51.866Z,98.01
2022-11-20T03:23:11.912Z,98.07
2022-11-20T03:23:31.934Z,98.04
2022-11-20T03:23:51.991Z,98.11
2022-11-20T03:24:12.016Z,98.12
2022-11-20T03:24:32.059Z,98.07
2022-11-20T03:24:52.104Z,98.05
2022-11-20T03:25:12.126Z,98
2022-11-20T03:25:32.159Z,98.02
2022-11-20T03:25:52.202Z,97.94
2022-11-20T03:26:12.263Z,97.87
2022-11-20T03:26:32.320Z,97.84
2022-11-20T03:26:52.335Z,97.85
2022-11-20T03:27:12.372Z,97.84
2022-11-20T03:27:32.388Z,97.74
2022-11-20T03:27:52.423Z,97.7
2022-11-20T03:28:12.454Z,97.74
2022-11-20T03:28:32.470Z,97.71
2022-11-20T03:28:52.506Z,97.76
2022-11-20T03:29:12.541Z,97.83
2022-11-20T03:29:32.576Z,97.83
2022-11-20T03:29:52.620Z,97.82
2022-11-20T03:30:12.680Z,97.83
2022-11-20T03:30:32.715Z,97.8
2022-11-20T03:30:52.751Z,97.81
2022-11-20T03:31:12.779Z,97.84
2022-11-20T03:31:32.803Z,97.88
2022-11-20T03:31:52.866Z,97.95
2022-11-20T03:32:12.884Z,98.02
2022-11-20T03:32:32.916Z,98.01
2022-11-20T03:32:52.949Z,98.08
2022-11-20T03:33:12.969Z,98.09
2022-11-20T03:33:33.003Z,98.05
2022-11-20T03:33:53.028Z,98.1
2022-11-20T03:34:13.040Z,98.11
2022-11-20T03:34:33.097Z,98.16
2022-11-20T03:34:53.113Z,98.15
2022-11-20T03:35:13.135Z,98.16
2022-11-20T03:35:33.180Z,98.21
2022-11-20T03:35:53.191Z,98.24
2022-11-20T03:36:13.241Z,98.23
2022-11-20T03:36:33.267Z,98.3
2022-11-20T03:36:53.305Z,98.33
2022-11-20T03:37:13.348Z,98.3
2022-11-20T03:37:33.379Z,98.29
2022-11-20T03:37:53.405Z,98.27
2022-11-20T03:38:13.450Z,98.28
2022-11-20T03:38:33.478Z,98.25
2022-11-20T03:38:53.520Z,98.26
2022-11-20T03:39:13.574Z,98.26
2022-11-20T03:39:33.600Z,98.22
2022-11-20T03:39:53.639Z,98.18
2022-11-20T03:40:13.673Z,98.13
2022-11-20T03:40:33.733Z,98.16
2022-11-20T03:40:53.756Z,98.12
2022-11-20T03:41:13.783Z,98.1
2022-11-20T03:41:33.814Z,98.06
2022-11-20T03:41:53.835Z,98.08
2022-11-20T03:42:13.924Z,98.04
2022-11-20T03:42:33.948Z,98.1
2022-11-20T03:42:53.996Z,98.16
2022-11-20T03:43:14.015Z,98.17
2022-11-20T03:43:34.144Z,98.13
2022-11-20T03:43:54.122Z,98.18
2022-11-20T03:44:14.155Z,98.22
2022-11-20T03:44:34.203Z,98.25
2022-11-20T03:44:54.240Z,98.25
2022-11-20T03:45:14.323Z,98.24
2022-11-20T03:45:34.307Z,98.28
2022-11-20T03:45:54.346Z,98.33
2022-11-20T03:46:14.413Z,98.32
2022-11-20T03:46:34.433Z,98.25
2022-11-20T03:46:54.453Z,98.22
2022-11-20T03:47:14.515Z,98.2
2022-11-20T03:47:34.542Z,98.2
2022-11-20T03:47:54.595Z,98.18
2022-11-20T03:48:14.596Z,98.19
2022-11-20T03:48:34.623Z,98.17
2022-11-20T03:48:54.660Z,98.1
2022-11-20T03:49:14.691Z,98.11
2022-11-20T03:49:34.730Z,98.08
2022-11-20T03:49:54.742Z,98.1
2022-11-20T03:50:14.786Z,98.17
2022-11-20T03:50:34.809Z,98.21
2022-11-20T03:50:54.836Z,98.2
2022-11-20T03:51:14.872Z,98.21
2022-11-20T03:51:34.906Z,98.22
2022-11-20T03:51:54.956Z,98.21
2022-11-20T03:52:14.988Z,98.25
2022-11-20T03:52:35.022Z,98.25
2022-11-20T03:52:55.151Z,98.2
2022-11-20T03:53:15.087Z,98.2
2022-11-20T03:53:35.133Z,98.2
2022-11-20T03:53:55.173Z,98.25
2022-11-20T03:54:15.208Z,98.27
2022-11-20T03:54:35.242Z,98.29
2022-11-20T03:54:55.284Z,98.36
2022-11-20T03:55:15.317Z,98.42
2022-11-20T03:55:35.345Z,98.49
2022-11-20T03:55:55.363Z,98.54
2022-11-20T03:56:15.397Z,98.57
2022-11-20T03:56:35.417Z,98.6
2022-11-20T03:56:55.440Z,98.63
2022-11-20T03:57:15.480Z,98.64
2022-11-20T03:57:35.494Z,98.7
2022-11-20T03:57:55.525Z,98.73
2022-11-20T03:58:15.552Z,98.72
2022-11-20T03:58:35.581Z,98.73
2022-11-20T03:58:55.607Z,98.72
2022-11-20T03:59:15.630Z,98.73
2022-11-20T03:59:35.689Z,98.76
2022-11-20T03:59:55.756Z,98.68
2022-11-20T04:00:15.739Z,98.68
2022-11-20T04:00:35.816Z,98.68
2022-11-20T04:00:55.845Z,98.71
2022-11-20T04:01:15.944Z,98.66
2022-11-20T04:01:36.046Z,98.65
2022-11-20T04:01:55.975Z,98.64
2022-11-20T04:02:16.025Z,98.63
2022-11-20T04:02:36.029Z,98.61
2022-11-20T04:02:56.046Z,98.61
2022-11-20T04:03:16.109Z,98.62
2022-11-20T04:03:36.159Z,98.62
2022-11-20T04:03:56.225Z,98.59
2022-11-20T04:04:16.287Z,98.61
2022-11-20T04:04:36.357Z,98.62
2022-11-20T04:04:56.379Z,98.59
2022-11-20T04:05:16.472Z,98.62
2022-11-20T04:05:36.434Z,98.58
2022-11-20T04:05:56.451Z,98.54
2022-11-20T04:06:16.496Z,98.48
2022-11-20T04:06:36.519Z,98.51
2022-11-20T04:06:56.666Z,98.43
2022-11-20T04:07:16.776Z,98.37
2022-11-20T04:07:36.650Z,98.34
2022-11-20T04:07:56.610Z,98.31
2022-11-20T04:08:16.624Z,98.26
2022-11-20T04:08:36.645Z,98.24
2022-11-20T04:08:56.698Z,98.23
2022-11-20T04:09:16.719Z,98.19
2022-11-20T04:09:36.766Z,98.15
2022-11-20T04:09:56.815Z,98.15
2022-11-20T04:10:16.863Z,98.16
2022-11-20T04:10:36.878Z,98.19
2022-11-20T04:10:56.927Z,98.24
2022-11-20T04:11:16.972Z,98.24
2022-11-20T04:11:37.016Z,98.25
2022-11-20T04:11:57.062Z,98.32
2022-11-20T04:12:17.080Z,98.32
2022-11-20T04:12:37.103Z,98.33
2022-11-20T04:12:57.141Z,98.37
2022-11-20T04:13:17.146Z,98.39
2022-11-20T04:13:37.187Z,98.44
2022-11-20T04:13:57.221Z,98.45
2022-11-20T04:14:17.241Z,98.46
2022-11-20T04:14:37.255Z,98.41
2022-11-20T04:14:57.288Z,98.39
2022-11-20T04:15:17.308Z,98.39
2022-11-20T04:15:38.579Z,98.38
2022-11-20T04:15:57.398Z,98.39
2022-11-20T04:16:17.436Z,98.37
2022-11-20T04:16:37.453Z,98.41
2022-11-20T04:16:57.508Z,98.41
2022-11-20T04:17:17.530Z,98.43
2022-11-20T04:17:37.554Z,98.45
2022-11-20T04:17:57.611Z,98.44
2022-11-20T04:18:17.682Z,98.41
2022-11-20T04:18:37.719Z,98.46
2022-11-20T04:18:57.786Z,98.44
2022-11-20T04:19:17.884Z,98.44
2022-11-20T04:19:37.828Z,98.41
2022-11-20T04:19:57.857Z,98.43
2022-11-20T04:20:17.869Z,98.44
2022-11-20T04:20:37.891Z,98.45
2022-11-20T04:20:57.928Z,98.44